AirNav   Everest Fuels
 
 813 users online  

7VA8 Tri-Cities Heliport
Bristol, Virginia, USA

GOING TO BRISTOL?


FAA INFORMATION EFFECTIVE 10 SEPTEMBER 2020

Location

FAA Identifier: 7VA8
Lat/Long: 36-38-45.3900N 082-06-38.4690W
36-38.756500N 082-06.641150W
36.6459417,-82.1106858
(estimated)
Elevation: 1880 ft. / 573 m (estimated)
Variation: 05W (1985)
From city: 4 miles NE of BRISTOL, VA
Time zone: UTC -4 (UTC -5 during Standard Time)
Zip code: 24202

Heliport Operations

Heliport use: Private use. Permission required prior to landing
Activation date: 06/1981
Control tower: no
ARTCC: ATLANTA CENTER
FSS: LEESBURG FLIGHT SERVICE STATION
Attendance: UNATNDD
Wind indicator: yes
Segmented circle: no

Heliport Communications

WX AWOS-3 at VJI (4 nm NE): 128.125 (276-628-2940)
WX AWOS-3PT at 0A9 (17 nm S): 135.675 (423-543-1801)
WX ASOS at TRI (18 nm SW): 118.25 (423-279-0363)
WX AWOS-3 at 6A4 (19 nm SE): 126.225 (423-727-4365)

Nearby radio navigation aids

VOR radial/distance  VOR name  Freq  Var
GZGr190/10.9GLADE SPRING VOR/DME110.2002W
HMVr008/12.6HOLSTON MOUNTAIN VORTAC114.6004W

 
NDB name  Hdg/Dist  Freq  Var  ID
MOCCA068/11.429907WTR - .-.
HEMLOCK341/31.632002WBAR -... .- .-.
ROGERSVILLE080/39.032907WRVN .-. ...- -.

Heliport Services

Runway Information

Helipad H1

Dimensions: 45 x 45 ft. / 14 x 14 m
Surface: concrete
Latitude: 36-38.756500N
Longitude: 082-06.641150W
Elevation: 1880.0 ft.
Traffic pattern: leftleft
Obstructions: bldg, lighted
BLDG NW OF HELI.

Heliport Ownership and Management from official FAA records

Ownership: Privately-owned
Owner: SIMMONS-RAND COMPANY
4201 LEE HIGHWAY
BRISTOL, VA 24201
Phone 703-669-9171
Manager: J R ALLISON
RT 3 BOX 70
CEDAR BLUFF, VA 24609
Phone 703-963-0841

Additional Remarks

FOR CD CTC ATLANTA ARTCC AT 770-210-7692.

Instrument Procedures

There are no published instrument procedures at 7VA8.

Some nearby airports with instrument procedures:

KVJI - Virginia Highlands Airport (4 nm NE)
0A9 - Elizabethton Municipal Airport (17 nm S)
KTRI - Tri-Cities Airport (18 nm SW)
6A4 - Johnson County Airport (19 nm SE)
KLNP - Lonesome Pine Airport (29 nm NW)
 
Loc | Ops | Rwys | IFR | FBO | Links
Com | Nav | Svcs | Stats | Notes
Area around 7VA8 (Tri-Cities Heliport)
 
Road maps at: MapQuest Bing Google
 
Aerial photo
No photo
 
Sectional chart

 
Airport distance calculator
Flying to Tri-Cities Heliport? Find the distance to fly.

From to 7VA8

Sunrise and sunset
Times for 21-Sep-2020
 Local
(UTC-4)
 Zulu
(UTC)
Morning civil twilight06:5110:51
Sunrise07:1711:17
Sunset19:2523:25
Evening civil twilight19:5123:51

Current date and time
Zulu (UTC)  22-Sep-2020 03:46:45
Local (UTC-4)  21-Sep-2020 23:46:45
 
METAR
KVJI 
5nm E 
220335Z AUTO 09005KT 10SM CLR 10/05 A3037 RMK AO2 T01020050
K0A9 
17nm S 
220335Z AUTO 07005KT 10SM CLR 12/07 A3037 RMK AO2
KTRI 
17nm SW 
220253Z VRB04KT 10SM CLR 14/06 A3035 RMK AO2 SLP263 T01390056 51013
TAF
KTRI 
17nm SW 
211720Z 2118/2218 07005KT P6SM SKC FM220000 00000KT P6SM SKC TEMPO 2211/2213 4SM BR FEW005
NOTAMs
Click for the latest NOTAMs
NOTAMs are issued by the DoD/FAA and will open in a separate window not controlled by AirNav.

 

 
 

Would you like to see your business listed on this page?

 If your business provides an interesting product or service to pilots, flight crews, aircraft, or users of the Tri-Cities Heliport, you should consider listing it here.  To start the listing process, click on the button below
 
Add a business
 

Other Pages about Tri-Cities Heliport

Update a link
 
Copyright © AirNav, LLC. All rights reserved. Privacy Policy  Contact